sensor_id;sensor_type;location;lat;lon;timestamp;P1;durP1;ratioP1;P2;durP2;ratioP2
36547;SDS011;22551;52.206;4.856;2023-07-13T00:02:49;10.13;;;3.30;;
36547;SDS011;22551;52.206;4.856;2023-07-13T00:07:55;18.52;;;3.00;;
36547;SDS011;22551;52.206;4.856;2023-07-13T00:34:34;8.80;;;2.55;;
36547;SDS011;22551;52.206;4.856;2023-07-13T00:39:38;12.15;;;2.78;;
36547;SDS011;22551;52.206;4.856;2023-07-13T00:44:40;15.93;;;2.80;;
36547;SDS011;22551;52.206;4.856;2023-07-13T00:49:44;14.40;;;2.50;;
36547;SDS011;22551;52.206;4.856;2023-07-13T00:54:47;22.67;;;3.17;;
36547;SDS011;22551;52.206;4.856;2023-07-13T00:59:50;12.05;;;3.00;;
36547;SDS011;22551;52.206;4.856;2023-07-13T01:20:41;16.23;;;3.05;;
36547;SDS011;22551;52.206;4.856;2023-07-13T01:25:53;6.60;;;1.90;;
36547;SDS011;22551;52.206;4.856;2023-07-13T01:30:57;12.70;;;2.70;;
36547;SDS011;22551;52.206;4.856;2023-07-13T01:36:01;10.20;;;1.90;;
36547;SDS011;22551;52.206;4.856;2023-07-13T01:41:05;9.52;;;2.25;;
36547;SDS011;22551;52.206;4.856;2023-07-13T01:46:08;12.13;;;2.53;;
36547;SDS011;22551;52.206;4.856;2023-07-13T01:51:12;10.18;;;1.88;;
36547;SDS011;22551;52.206;4.856;2023-07-13T01:56:14;8.98;;;2.13;;
36547;SDS011;22551;52.206;4.856;2023-07-13T02:01:17;7.35;;;1.77;;
36547;SDS011;22551;52.206;4.856;2023-07-13T02:06:21;9.95;;;1.58;;
36547;SDS011;22551;52.206;4.856;2023-07-13T02:11:24;12.85;;;2.30;;
36547;SDS011;22551;52.206;4.856;2023-07-13T02:16:32;11.82;;;2.22;;
36547;SDS011;22551;52.206;4.856;2023-07-13T02:21:36;7.57;;;2.47;;
36547;SDS011;22551;52.206;4.856;2023-07-13T02:26:38;14.53;;;2.57;;
36547;SDS011;22551;52.206;4.856;2023-07-13T02:31:41;6.10;;;1.90;;
36547;SDS011;22551;52.206;4.856;2023-07-13T02:36:45;11.05;;;2.25;;
36547;SDS011;22551;52.206;4.856;2023-07-13T02:41:47;3.17;;;1.55;;
36547;SDS011;22551;52.206;4.856;2023-07-13T02:46:50;11.43;;;2.55;;
36547;SDS011;22551;52.206;4.856;2023-07-13T02:51:54;11.88;;;1.60;;
36547;SDS011;22551;52.206;4.856;2023-07-13T03:07:19;7.00;;;1.83;;
36547;SDS011;22551;52.206;4.856;2023-07-13T03:12:21;8.40;;;1.52;;
36547;SDS011;22551;52.206;4.856;2023-07-13T03:17:24;6.32;;;1.38;;
36547;SDS011;22551;52.206;4.856;2023-07-13T03:22:27;7.10;;;1.35;;
36547;SDS011;22551;52.206;4.856;2023-07-13T03:27:30;4.73;;;1.30;;
36547;SDS011;22551;52.206;4.856;2023-07-13T03:32:32;8.50;;;1.10;;
36547;SDS011;22551;52.206;4.856;2023-07-13T03:42:47;2.78;;;1.20;;
36547;SDS011;22551;52.206;4.856;2023-07-13T03:47:50;3.63;;;0.93;;
36547;SDS011;22551;52.206;4.856;2023-07-13T03:52:53;9.15;;;1.15;;
36547;SDS011;22551;52.206;4.856;2023-07-13T03:57:59;6.40;;;1.25;;
36547;SDS011;22551;52.206;4.856;2023-07-13T04:03:06;10.68;;;1.63;;
36547;SDS011;22551;52.206;4.856;2023-07-13T04:08:09;4.47;;;1.15;;
36547;SDS011;22551;52.206;4.856;2023-07-13T04:13:13;7.93;;;1.52;;
36547;SDS011;22551;52.206;4.856;2023-07-13T04:18:16;9.32;;;1.27;;
36547;SDS011;22551;52.206;4.856;2023-07-13T04:23:19;7.75;;;1.55;;
36547;SDS011;22551;52.206;4.856;2023-07-13T04:28:24;13.75;;;1.65;;
36547;SDS011;22551;52.206;4.856;2023-07-13T04:33:28;6.45;;;1.70;;
36547;SDS011;22551;52.206;4.856;2023-07-13T04:38:31;12.57;;;1.75;;
36547;SDS011;22551;52.206;4.856;2023-07-13T04:43:36;12.90;;;2.87;;
36547;SDS011;22551;52.206;4.856;2023-07-13T04:48:38;10.57;;;2.03;;
36547;SDS011;22551;52.206;4.856;2023-07-13T04:53:41;11.68;;;3.00;;
36547;SDS011;22551;52.206;4.856;2023-07-13T04:58:44;4.28;;;1.70;;
36547;SDS011;22551;52.206;4.856;2023-07-13T05:03:47;13.60;;;3.22;;
36547;SDS011;22551;52.206;4.856;2023-07-13T05:08:49;7.72;;;2.03;;
36547;SDS011;22551;52.206;4.856;2023-07-13T05:13:53;10.30;;;1.73;;
36547;SDS011;22551;52.206;4.856;2023-07-13T05:18:56;16.57;;;2.73;;
36547;SDS011;22551;52.206;4.856;2023-07-13T05:23:58;14.25;;;2.72;;
36547;SDS011;22551;52.206;4.856;2023-07-13T05:29:02;15.48;;;2.38;;
36547;SDS011;22551;52.206;4.856;2023-07-13T05:34:04;12.90;;;1.90;;
36547;SDS011;22551;52.206;4.856;2023-07-13T05:39:07;12.73;;;2.70;;
36547;SDS011;22551;52.206;4.856;2023-07-13T05:59:43;9.35;;;1.70;;
36547;SDS011;22551;52.206;4.856;2023-07-13T06:04:48;6.70;;;1.92;;
36547;SDS011;22551;52.206;4.856;2023-07-13T06:09:50;12.40;;;2.55;;
36547;SDS011;22551;52.206;4.856;2023-07-13T06:14:54;13.00;;;2.40;;
36547;SDS011;22551;52.206;4.856;2023-07-13T06:25:00;8.25;;;1.98;;
36547;SDS011;22551;52.206;4.856;2023-07-13T06:30:05;6.63;;;1.55;;
36547;SDS011;22551;52.206;4.856;2023-07-13T06:35:10;4.07;;;1.60;;
36547;SDS011;22551;52.206;4.856;2023-07-13T06:40:13;6.30;;;1.52;;
36547;SDS011;22551;52.206;4.856;2023-07-13T06:45:18;3.78;;;1.70;;
36547;SDS011;22551;52.206;4.856;2023-07-13T06:50:23;5.43;;;1.60;;
36547;SDS011;22551;52.206;4.856;2023-07-13T07:22:54;6.63;;;1.65;;
36547;SDS011;22551;52.206;4.856;2023-07-13T07:27:58;5.07;;;1.30;;
36547;SDS011;22551;52.206;4.856;2023-07-13T07:33:01;5.07;;;1.33;;
36547;SDS011;22551;52.206;4.856;2023-07-13T07:38:06;4.28;;;1.00;;
36547;SDS011;22551;52.206;4.856;2023-07-13T07:43:10;5.07;;;1.20;;
36547;SDS011;22551;52.206;4.856;2023-07-13T07:48:14;7.80;;;1.58;;
36547;SDS011;22551;52.206;4.856;2023-07-13T07:53:18;6.68;;;1.27;;
36547;SDS011;22551;52.206;4.856;2023-07-13T08:03:23;2.22;;;0.95;;
36547;SDS011;22551;52.206;4.856;2023-07-13T08:08:26;4.93;;;1.17;;
36547;SDS011;22551;52.206;4.856;2023-07-13T08:18:31;3.13;;;0.88;;
36547;SDS011;22551;52.206;4.856;2023-07-13T08:23:35;4.07;;;1.05;;
36547;SDS011;22551;52.206;4.856;2023-07-13T08:28:38;1.50;;;0.68;;
36547;SDS011;22551;52.206;4.856;2023-07-13T08:33:41;3.92;;;1.10;;
36547;SDS011;22551;52.206;4.856;2023-07-13T08:38:45;4.75;;;1.02;;
36547;SDS011;22551;52.206;4.856;2023-07-13T08:43:49;2.30;;;1.20;;
36547;SDS011;22551;52.206;4.856;2023-07-13T08:48:57;4.13;;;1.02;;
36547;SDS011;22551;52.206;4.856;2023-07-13T08:54:20;3.65;;;1.17;;
36547;SDS011;22551;52.206;4.856;2023-07-13T08:59:30;6.05;;;1.75;;
36547;SDS011;22551;52.206;4.856;2023-07-13T09:04:36;7.32;;;1.95;;
36547;SDS011;22551;52.206;4.856;2023-07-13T09:09:52;4.35;;;1.60;;
36547;SDS011;22551;52.206;4.856;2023-07-13T09:15:14;7.00;;;1.48;;
36547;SDS011;22551;52.206;4.856;2023-07-13T09:20:34;3.47;;;1.30;;
36547;SDS011;22551;52.206;4.856;2023-07-13T09:25:40;5.25;;;1.67;;
36547;SDS011;22551;52.206;4.856;2023-07-13T09:30:46;5.55;;;1.60;;
36547;SDS011;22551;52.206;4.856;2023-07-13T09:35:53;7.20;;;1.52;;
36547;SDS011;22551;52.206;4.856;2023-07-13T09:40:59;3.38;;;1.00;;
36547;SDS011;22551;52.206;4.856;2023-07-13T09:46:20;4.00;;;1.13;;
36547;SDS011;22551;52.206;4.856;2023-07-13T09:51:23;3.60;;;1.40;;
36547;SDS011;22551;52.206;4.856;2023-07-13T09:56:28;9.35;;;2.53;;
36547;SDS011;22551;52.206;4.856;2023-07-13T10:01:39;6.82;;;1.38;;
36547;SDS011;22551;52.206;4.856;2023-07-13T10:06:41;4.88;;;1.73;;
36547;SDS011;22551;52.206;4.856;2023-07-13T10:11:46;5.93;;;2.10;;
36547;SDS011;22551;52.206;4.856;2023-07-13T10:16:49;4.88;;;1.90;;
36547;SDS011;22551;52.206;4.856;2023-07-13T10:22:03;3.50;;;1.67;;
36547;SDS011;22551;52.206;4.856;2023-07-13T10:27:27;6.63;;;1.58;;
36547;SDS011;22551;52.206;4.856;2023-07-13T10:32:35;7.07;;;1.50;;
36547;SDS011;22551;52.206;4.856;2023-07-13T10:37:43;5.38;;;1.50;;
36547;SDS011;22551;52.206;4.856;2023-07-13T10:42:52;5.18;;;1.52;;
36547;SDS011;22551;52.206;4.856;2023-07-13T10:47:59;4.60;;;1.65;;
36547;SDS011;22551;52.206;4.856;2023-07-13T10:53:03;6.03;;;1.60;;
36547;SDS011;22551;52.206;4.856;2023-07-13T10:58:22;4.30;;;1.63;;
36547;SDS011;22551;52.206;4.856;2023-07-13T11:03:33;4.63;;;1.50;;
36547;SDS011;22551;52.206;4.856;2023-07-13T11:08:38;4.25;;;1.38;;
36547;SDS011;22551;52.206;4.856;2023-07-13T11:13:59;4.40;;;1.33;;
36547;SDS011;22551;52.206;4.856;2023-07-13T11:24:51;9.10;;;1.77;;
36547;SDS011;22551;52.206;4.856;2023-07-13T11:30:14;6.97;;;1.17;;
36547;SDS011;22551;52.206;4.856;2023-07-13T11:35:36;3.65;;;1.73;;
36547;SDS011;22551;52.206;4.856;2023-07-13T11:40:43;3.97;;;1.40;;
36547;SDS011;22551;52.206;4.856;2023-07-13T11:45:49;3.92;;;1.15;;
36547;SDS011;22551;52.206;4.856;2023-07-13T11:50:53;4.20;;;1.80;;
36547;SDS011;22551;52.206;4.856;2023-07-13T11:56:00;4.38;;;1.33;;
36547;SDS011;22551;52.206;4.856;2023-07-13T12:01:04;3.20;;;1.30;;
36547;SDS011;22551;52.206;4.856;2023-07-13T12:06:17;2.17;;;1.20;;
36547;SDS011;22551;52.206;4.856;2023-07-13T12:11:29;3.70;;;1.38;;
36547;SDS011;22551;52.206;4.856;2023-07-13T12:16:39;2.92;;;1.27;;
36547;SDS011;22551;52.206;4.856;2023-07-13T12:21:42;3.20;;;1.55;;
36547;SDS011;22551;52.206;4.856;2023-07-13T12:26:50;6.28;;;1.83;;
36547;SDS011;22551;52.206;4.856;2023-07-13T12:31:55;5.20;;;1.98;;
36547;SDS011;22551;52.206;4.856;2023-07-13T12:36:59;3.85;;;1.75;;
36547;SDS011;22551;52.206;4.856;2023-07-13T12:42:13;4.25;;;1.52;;
36547;SDS011;22551;52.206;4.856;2023-07-13T12:47:28;4.70;;;1.77;;
36547;SDS011;22551;52.206;4.856;2023-07-13T12:52:31;4.70;;;1.30;;
36547;SDS011;22551;52.206;4.856;2023-07-13T12:57:39;4.70;;;1.55;;
36547;SDS011;22551;52.206;4.856;2023-07-13T13:02:46;5.65;;;1.90;;
36547;SDS011;22551;52.206;4.856;2023-07-13T13:07:52;5.93;;;1.60;;
36547;SDS011;22551;52.206;4.856;2023-07-13T13:12:54;2.30;;;1.47;;
36547;SDS011;22551;52.206;4.856;2023-07-13T13:17:58;3.28;;;1.55;;
36547;SDS011;22551;52.206;4.856;2023-07-13T13:23:01;2.97;;;1.65;;
36547;SDS011;22551;52.206;4.856;2023-07-13T13:28:04;3.20;;;1.70;;
36547;SDS011;22551;52.206;4.856;2023-07-13T13:33:16;3.00;;;1.30;;
36547;SDS011;22551;52.206;4.856;2023-07-13T13:38:22;3.63;;;1.13;;
36547;SDS011;22551;52.206;4.856;2023-07-13T13:43:28;2.08;;;1.20;;
36547;SDS011;22551;52.206;4.856;2023-07-13T13:48:33;3.80;;;1.40;;
36547;SDS011;22551;52.206;4.856;2023-07-13T13:53:37;2.40;;;1.20;;
36547;SDS011;22551;52.206;4.856;2023-07-13T13:58:39;2.35;;;1.23;;
36547;SDS011;22551;52.206;4.856;2023-07-13T14:03:44;5.27;;;1.10;;
36547;SDS011;22551;52.206;4.856;2023-07-13T14:08:48;1.60;;;1.00;;
36547;SDS011;22551;52.206;4.856;2023-07-13T14:13:51;5.40;;;1.03;;
36547;SDS011;22551;52.206;4.856;2023-07-13T14:18:57;2.70;;;1.30;;
36547;SDS011;22551;52.206;4.856;2023-07-13T14:24:01;4.32;;;1.45;;
36547;SDS011;22551;52.206;4.856;2023-07-13T14:29:05;2.57;;;0.93;;
36547;SDS011;22551;52.206;4.856;2023-07-13T14:34:16;3.10;;;0.80;;
36547;SDS011;22551;52.206;4.856;2023-07-13T14:39:20;2.97;;;1.25;;
36547;SDS011;22551;52.206;4.856;2023-07-13T14:44:26;6.20;;;1.42;;
36547;SDS011;22551;52.206;4.856;2023-07-13T14:49:34;3.15;;;0.80;;
36547;SDS011;22551;52.206;4.856;2023-07-13T14:54:39;3.65;;;1.48;;
36547;SDS011;22551;52.206;4.856;2023-07-13T14:59:43;3.45;;;1.30;;
36547;SDS011;22551;52.206;4.856;2023-07-13T15:04:48;3.22;;;1.63;;
36547;SDS011;22551;52.206;4.856;2023-07-13T15:09:50;2.92;;;1.10;;
36547;SDS011;22551;52.206;4.856;2023-07-13T15:14:53;4.00;;;1.02;;
36547;SDS011;22551;52.206;4.856;2023-07-13T15:19:57;1.73;;;1.20;;
36547;SDS011;22551;52.206;4.856;2023-07-13T15:25:00;1.65;;;0.95;;
36547;SDS011;22551;52.206;4.856;2023-07-13T15:30:14;2.15;;;1.10;;
36547;SDS011;22551;52.206;4.856;2023-07-13T15:35:20;3.97;;;1.13;;
36547;SDS011;22551;52.206;4.856;2023-07-13T15:40:26;3.13;;;1.27;;
36547;SDS011;22551;52.206;4.856;2023-07-13T15:45:28;2.40;;;1.15;;
36547;SDS011;22551;52.206;4.856;2023-07-13T15:50:35;4.47;;;1.10;;
36547;SDS011;22551;52.206;4.856;2023-07-13T15:55:46;2.05;;;1.50;;
36547;SDS011;22551;52.206;4.856;2023-07-13T16:00:49;3.58;;;1.35;;
36547;SDS011;22551;52.206;4.856;2023-07-13T16:05:56;1.88;;;1.02;;
36547;SDS011;22551;52.206;4.856;2023-07-13T16:11:00;2.65;;;0.90;;
36547;SDS011;22551;52.206;4.856;2023-07-13T16:27:25;3.33;;;1.00;;
36547;SDS011;22551;52.206;4.856;2023-07-13T16:32:27;3.85;;;1.08;;
36547;SDS011;22551;52.206;4.856;2023-07-13T16:37:29;5.35;;;1.15;;
36547;SDS011;22551;52.206;4.856;2023-07-13T16:42:33;6.07;;;1.17;;
36547;SDS011;22551;52.206;4.856;2023-07-13T16:47:36;3.63;;;1.30;;
36547;SDS011;22551;52.206;4.856;2023-07-13T16:52:41;3.55;;;0.90;;
36547;SDS011;22551;52.206;4.856;2023-07-13T16:57:45;7.63;;;1.33;;
36547;SDS011;22551;52.206;4.856;2023-07-13T17:02:48;3.78;;;1.33;;
36547;SDS011;22551;52.206;4.856;2023-07-13T17:07:52;6.07;;;1.00;;
36547;SDS011;22551;52.206;4.856;2023-07-13T17:12:56;2.88;;;1.20;;
36547;SDS011;22551;52.206;4.856;2023-07-13T17:34:06;7.80;;;1.05;;
36547;SDS011;22551;52.206;4.856;2023-07-13T17:39:13;4.32;;;0.82;;
36547;SDS011;22551;52.206;4.856;2023-07-13T17:44:18;2.17;;;1.20;;
36547;SDS011;22551;52.206;4.856;2023-07-13T17:49:23;1.25;;;0.60;;
36547;SDS011;22551;52.206;4.856;2023-07-13T17:54:31;2.78;;;0.70;;
36547;SDS011;22551;52.206;4.856;2023-07-13T17:59:34;1.23;;;0.60;;
36547;SDS011;22551;52.206;4.856;2023-07-13T18:04:38;3.53;;;0.98;;
36547;SDS011;22551;52.206;4.856;2023-07-13T18:30:30;3.90;;;1.27;;
36547;SDS011;22551;52.206;4.856;2023-07-13T18:35:33;6.00;;;0.77;;
36547;SDS011;22551;52.206;4.856;2023-07-13T18:40:38;7.40;;;1.48;;
36547;SDS011;22551;52.206;4.856;2023-07-13T18:45:42;2.95;;;0.90;;
36547;SDS011;22551;52.206;4.856;2023-07-13T18:55:55;3.33;;;0.70;;
36547;SDS011;22551;52.206;4.856;2023-07-13T19:01:01;5.22;;;1.63;;
36547;SDS011;22551;52.206;4.856;2023-07-13T19:06:08;2.65;;;1.08;;
36547;SDS011;22551;52.206;4.856;2023-07-13T19:11:13;7.15;;;0.93;;
36547;SDS011;22551;52.206;4.856;2023-07-13T19:16:19;7.95;;;1.77;;
36547;SDS011;22551;52.206;4.856;2023-07-13T19:21:26;4.22;;;1.20;;
36547;SDS011;22551;52.206;4.856;2023-07-13T19:26:38;4.47;;;1.40;;
36547;SDS011;22551;52.206;4.856;2023-07-13T19:57:34;4.45;;;1.23;;
36547;SDS011;22551;52.206;4.856;2023-07-13T20:07:39;2.38;;;1.00;;
36547;SDS011;22551;52.206;4.856;2023-07-13T20:12:43;3.70;;;1.67;;
36547;SDS011;22551;52.206;4.856;2023-07-13T20:17:47;3.13;;;1.13;;
36547;SDS011;22551;52.206;4.856;2023-07-13T20:22:56;6.25;;;1.55;;
36547;SDS011;22551;52.206;4.856;2023-07-13T20:28:00;3.58;;;1.20;;
36547;SDS011;22551;52.206;4.856;2023-07-13T20:33:05;6.10;;;1.30;;
36547;SDS011;22551;52.206;4.856;2023-07-13T20:38:15;3.50;;;0.90;;
36547;SDS011;22551;52.206;4.856;2023-07-13T20:43:20;2.22;;;0.90;;
36547;SDS011;22551;52.206;4.856;2023-07-13T20:48:33;6.00;;;1.50;;
36547;SDS011;22551;52.206;4.856;2023-07-13T20:53:39;5.60;;;1.20;;
36547;SDS011;22551;52.206;4.856;2023-07-13T20:58:43;3.90;;;1.52;;
36547;SDS011;22551;52.206;4.856;2023-07-13T21:03:47;2.67;;;0.88;;
36547;SDS011;22551;52.206;4.856;2023-07-13T21:08:50;3.50;;;1.10;;
36547;SDS011;22551;52.206;4.856;2023-07-13T21:13:55;3.95;;;1.23;;
36547;SDS011;22551;52.206;4.856;2023-07-13T21:23:59;4.57;;;1.20;;
36547;SDS011;22551;52.206;4.856;2023-07-13T21:29:04;4.53;;;1.15;;
36547;SDS011;22551;52.206;4.856;2023-07-13T21:34:08;4.38;;;1.40;;
36547;SDS011;22551;52.206;4.856;2023-07-13T21:54:50;4.65;;;1.58;;
36547;SDS011;22551;52.206;4.856;2023-07-13T22:20:37;6.43;;;1.98;;
36547;SDS011;22551;52.206;4.856;2023-07-13T22:25:40;3.00;;;1.40;;
36547;SDS011;22551;52.206;4.856;2023-07-13T22:30:43;3.72;;;1.25;;
36547;SDS011;22551;52.206;4.856;2023-07-13T22:40:52;3.53;;;2.10;;
36547;SDS011;22551;52.206;4.856;2023-07-13T22:45:55;2.35;;;1.48;;
36547;SDS011;22551;52.206;4.856;2023-07-13T22:51:01;3.50;;;1.30;;
36547;SDS011;22551;52.206;4.856;2023-07-13T22:56:04;3.55;;;1.23;;
36547;SDS011;22551;52.206;4.856;2023-07-13T23:01:09;6.63;;;1.73;;
36547;SDS011;22551;52.206;4.856;2023-07-13T23:06:24;2.03;;;1.17;;
36547;SDS011;22551;52.206;4.856;2023-07-13T23:11:30;4.72;;;2.20;;
36547;SDS011;22551;52.206;4.856;2023-07-13T23:16:32;2.55;;;1.60;;
36547;SDS011;22551;52.206;4.856;2023-07-13T23:21:36;3.28;;;1.63;;
36547;SDS011;22551;52.206;4.856;2023-07-13T23:26:42;6.05;;;2.17;;
36547;SDS011;22551;52.206;4.856;2023-07-13T23:31:44;5.57;;;2.17;;
36547;SDS011;22551;52.206;4.856;2023-07-13T23:36:49;6.60;;;2.22;;
36547;SDS011;22551;52.206;4.856;2023-07-13T23:41:52;5.55;;;2.00;;
36547;SDS011;22551;52.206;4.856;2023-07-13T23:46:55;2.22;;;1.70;;
36547;SDS011;22551;52.206;4.856;2023-07-13T23:52:00;7.00;;;1.73;;
36547;SDS011;22551;52.206;4.856;2023-07-13T23:57:08;6.47;;;1.98;;
